sensor_id;sensor_type;location;lat;lon;timestamp;pressure;altitude;pressure_sealevel;temperature
12875;BMP180;6505;51.114;13.128;2023-04-07T00:01:36;99754.00;;;11.20
12875;BMP180;6505;51.114;13.128;2023-04-07T00:04:04;99758.00;;;11.20
12875;BMP180;6505;51.114;13.128;2023-04-07T00:06:32;99762.00;;;11.20
12875;BMP180;6505;51.114;13.128;2023-04-07T00:09:00;99750.00;;;11.10
12875;BMP180;6505;51.114;13.128;2023-04-07T00:11:28;99753.00;;;11.10
12875;BMP180;6505;51.114;13.128;2023-04-07T00:13:56;99749.00;;;11.10
12875;BMP180;6505;51.114;13.128;2023-04-07T00:16:25;99750.00;;;11.10
12875;BMP180;6505;51.114;13.128;2023-04-07T00:18:53;99740.00;;;11.10
12875;BMP180;6505;51.114;13.128;2023-04-07T00:21:21;99747.00;;;11.10
12875;BMP180;6505;51.114;13.128;2023-04-07T00:23:51;99753.00;;;11.00
12875;BMP180;6505;51.114;13.128;2023-04-07T00:26:19;99749.00;;;11.00
12875;BMP180;6505;51.114;13.128;2023-04-07T00:28:48;99738.00;;;11.00
12875;BMP180;6505;51.114;13.128;2023-04-07T00:31:16;99742.00;;;11.00
12875;BMP180;6505;51.114;13.128;2023-04-07T00:33:45;99742.00;;;11.00
12875;BMP180;6505;51.114;13.128;2023-04-07T00:36:15;99745.00;;;11.00
12875;BMP180;6505;51.114;13.128;2023-04-07T00:38:43;99745.00;;;11.00
12875;BMP180;6505;51.114;13.128;2023-04-07T00:41:11;99737.00;;;11.00
12875;BMP180;6505;51.114;13.128;2023-04-07T00:43:39;99740.00;;;10.90
12875;BMP180;6505;51.114;13.128;2023-04-07T00:46:07;99732.00;;;10.90
12875;BMP180;6505;51.114;13.128;2023-04-07T00:48:36;99732.00;;;10.90
12875;BMP180;6505;51.114;13.128;2023-04-07T00:51:06;99729.00;;;10.90
12875;BMP180;6505;51.114;13.128;2023-04-07T00:53:34;99723.00;;;10.90
12875;BMP180;6505;51.114;13.128;2023-04-07T00:56:02;99726.00;;;10.80
12875;BMP180;6505;51.114;13.128;2023-04-07T00:58:30;99718.00;;;10.80
12875;BMP180;6505;51.114;13.128;2023-04-07T01:01:07;99707.00;;;10.80
12875;BMP180;6505;51.114;13.128;2023-04-07T01:03:44;99717.00;;;10.80
12875;BMP180;6505;51.114;13.128;2023-04-07T01:06:19;99712.00;;;10.80
12875;BMP180;6505;51.114;13.128;2023-04-07T01:09:00;99707.00;;;10.80
12875;BMP180;6505;51.114;13.128;2023-04-07T01:11:38;99711.00;;;10.70
12875;BMP180;6505;51.114;13.128;2023-04-07T01:14:09;99701.00;;;10.70
12875;BMP180;6505;51.114;13.128;2023-04-07T01:16:48;99711.00;;;10.70
12875;BMP180;6505;51.114;13.128;2023-04-07T01:19:33;99709.00;;;10.70
12875;BMP180;6505;51.114;13.128;2023-04-07T01:22:11;99705.00;;;10.70
12875;BMP180;6505;51.114;13.128;2023-04-07T01:24:59;99703.00;;;10.60
12875;BMP180;6505;51.114;13.128;2023-04-07T01:27:41;99698.00;;;10.60
12875;BMP180;6505;51.114;13.128;2023-04-07T01:30:14;99703.00;;;10.60
12875;BMP180;6505;51.114;13.128;2023-04-07T01:32:49;99702.00;;;10.60
12875;BMP180;6505;51.114;13.128;2023-04-07T01:35:21;99697.00;;;10.60
12875;BMP180;6505;51.114;13.128;2023-04-07T01:37:51;99692.00;;;10.60
12875;BMP180;6505;51.114;13.128;2023-04-07T01:40:21;99692.00;;;10.60
12875;BMP180;6505;51.114;13.128;2023-04-07T01:42:50;99692.00;;;10.60
12875;BMP180;6505;51.114;13.128;2023-04-07T01:45:20;99696.00;;;10.50
12875;BMP180;6505;51.114;13.128;2023-04-07T01:47:50;99687.00;;;10.50
12875;BMP180;6505;51.114;13.128;2023-04-07T01:50:20;99691.00;;;10.50
12875;BMP180;6505;51.114;13.128;2023-04-07T01:52:48;99676.00;;;10.50
12875;BMP180;6505;51.114;13.128;2023-04-07T01:55:16;99680.00;;;10.50
12875;BMP180;6505;51.114;13.128;2023-04-07T01:57:56;99676.00;;;10.50
12875;BMP180;6505;51.114;13.128;2023-04-07T02:00:25;99680.00;;;10.50
12875;BMP180;6505;51.114;13.128;2023-04-07T02:03:00;99682.00;;;10.40
12875;BMP180;6505;51.114;13.128;2023-04-07T02:05:35;99677.00;;;10.40
12875;BMP180;6505;51.114;13.128;2023-04-07T02:08:07;99671.00;;;10.40
12875;BMP180;6505;51.114;13.128;2023-04-07T02:10:38;99674.00;;;10.40
12875;BMP180;6505;51.114;13.128;2023-04-07T02:13:12;99671.00;;;10.40
12875;BMP180;6505;51.114;13.128;2023-04-07T02:15:45;99672.00;;;10.40
12875;BMP180;6505;51.114;13.128;2023-04-07T02:18:18;99666.00;;;10.30
12875;BMP180;6505;51.114;13.128;2023-04-07T02:20:48;99663.00;;;10.30
12875;BMP180;6505;51.114;13.128;2023-04-07T02:23:17;99670.00;;;10.30
12875;BMP180;6505;51.114;13.128;2023-04-07T02:25:45;99666.00;;;10.30
12875;BMP180;6505;51.114;13.128;2023-04-07T02:28:13;99661.00;;;10.30
12875;BMP180;6505;51.114;13.128;2023-04-07T02:30:43;99668.00;;;10.30
12875;BMP180;6505;51.114;13.128;2023-04-07T02:33:11;99665.00;;;10.30
12875;BMP180;6505;51.114;13.128;2023-04-07T02:35:42;99666.00;;;10.30
12875;BMP180;6505;51.114;13.128;2023-04-07T02:38:10;99663.00;;;10.30
12875;BMP180;6505;51.114;13.128;2023-04-07T02:40:38;99664.00;;;10.20
12875;BMP180;6505;51.114;13.128;2023-04-07T02:43:06;99663.00;;;10.20
12875;BMP180;6505;51.114;13.128;2023-04-07T02:45:34;99662.00;;;10.20
12875;BMP180;6505;51.114;13.128;2023-04-07T02:48:04;99656.00;;;10.20
12875;BMP180;6505;51.114;13.128;2023-04-07T02:50:32;99658.00;;;10.10
12875;BMP180;6505;51.114;13.128;2023-04-07T02:53:00;99652.00;;;10.20
12875;BMP180;6505;51.114;13.128;2023-04-07T02:55:28;99654.00;;;10.20
12875;BMP180;6505;51.114;13.128;2023-04-07T02:57:56;99652.00;;;10.10
12875;BMP180;6505;51.114;13.128;2023-04-07T03:00:43;99651.00;;;10.10
12875;BMP180;6505;51.114;13.128;2023-04-07T03:03:16;99651.00;;;10.10
12875;BMP180;6505;51.114;13.128;2023-04-07T03:05:59;99655.00;;;10.10
12875;BMP180;6505;51.114;13.128;2023-04-07T03:08:28;99647.00;;;10.10
12875;BMP180;6505;51.114;13.128;2023-04-07T03:10:56;99650.00;;;10.10
12875;BMP180;6505;51.114;13.128;2023-04-07T03:13:27;99653.00;;;10.10
12875;BMP180;6505;51.114;13.128;2023-04-07T03:15:56;99650.00;;;10.10
12875;BMP180;6505;51.114;13.128;2023-04-07T03:18:30;99642.00;;;10.00
12875;BMP180;6505;51.114;13.128;2023-04-07T03:21:00;99646.00;;;10.00
12875;BMP180;6505;51.114;13.128;2023-04-07T03:23:28;99648.00;;;10.00
12875;BMP180;6505;51.114;13.128;2023-04-07T03:25:58;99660.00;;;10.00
12875;BMP180;6505;51.114;13.128;2023-04-07T03:28:30;99643.00;;;10.00
12875;BMP180;6505;51.114;13.128;2023-04-07T03:30:58;99642.00;;;10.00
12875;BMP180;6505;51.114;13.128;2023-04-07T03:33:26;99644.00;;;10.00
12875;BMP180;6505;51.114;13.128;2023-04-07T03:35:56;99654.00;;;9.90
12875;BMP180;6505;51.114;13.128;2023-04-07T03:38:25;99651.00;;;9.90
12875;BMP180;6505;51.114;13.128;2023-04-07T03:40:56;99649.00;;;9.90
12875;BMP180;6505;51.114;13.128;2023-04-07T03:43:24;99647.00;;;9.90
12875;BMP180;6505;51.114;13.128;2023-04-07T03:45:53;99645.00;;;9.90
12875;BMP180;6505;51.114;13.128;2023-04-07T03:48:22;99644.00;;;9.90
12875;BMP180;6505;51.114;13.128;2023-04-07T03:51:05;99646.00;;;9.90
12875;BMP180;6505;51.114;13.128;2023-04-07T03:53:33;99643.00;;;9.90
12875;BMP180;6505;51.114;13.128;2023-04-07T03:56:12;99643.00;;;9.80
12875;BMP180;6505;51.114;13.128;2023-04-07T03:58:47;99649.00;;;9.80
12875;BMP180;6505;51.114;13.128;2023-04-07T04:01:25;99648.00;;;9.80
12875;BMP180;6505;51.114;13.128;2023-04-07T04:03:55;99644.00;;;9.80
12875;BMP180;6505;51.114;13.128;2023-04-07T04:06:30;99645.00;;;9.80
12875;BMP180;6505;51.114;13.128;2023-04-07T04:09:06;99645.00;;;9.70
12875;BMP180;6505;51.114;13.128;2023-04-07T04:11:38;99643.00;;;9.70
12875;BMP180;6505;51.114;13.128;2023-04-07T04:14:06;99647.00;;;9.70
12875;BMP180;6505;51.114;13.128;2023-04-07T04:16:36;99644.00;;;9.70
12875;BMP180;6505;51.114;13.128;2023-04-07T04:19:11;99647.00;;;9.70
12875;BMP180;6505;51.114;13.128;2023-04-07T04:21:40;99632.00;;;9.70
12875;BMP180;6505;51.114;13.128;2023-04-07T04:24:09;99643.00;;;9.70
12875;BMP180;6505;51.114;13.128;2023-04-07T04:26:37;99641.00;;;9.70
12875;BMP180;6505;51.114;13.128;2023-04-07T04:29:10;99635.00;;;9.60
12875;BMP180;6505;51.114;13.128;2023-04-07T04:31:41;99652.00;;;9.60
12875;BMP180;6505;51.114;13.128;2023-04-07T04:34:09;99651.00;;;9.60
12875;BMP180;6505;51.114;13.128;2023-04-07T04:36:39;99648.00;;;9.60
12875;BMP180;6505;51.114;13.128;2023-04-07T04:39:08;99651.00;;;9.60
12875;BMP180;6505;51.114;13.128;2023-04-07T04:41:37;99640.00;;;9.60
12875;BMP180;6505;51.114;13.128;2023-04-07T04:44:06;99637.00;;;9.60
12875;BMP180;6505;51.114;13.128;2023-04-07T04:46:34;99638.00;;;9.60
12875;BMP180;6505;51.114;13.128;2023-04-07T04:49:02;99643.00;;;9.60
12875;BMP180;6505;51.114;13.128;2023-04-07T04:51:30;99641.00;;;9.60
12875;BMP180;6505;51.114;13.128;2023-04-07T04:54:06;99633.00;;;9.50
12875;BMP180;6505;51.114;13.128;2023-04-07T04:56:35;99645.00;;;9.50
12875;BMP180;6505;51.114;13.128;2023-04-07T04:59:04;99648.00;;;9.50
12875;BMP180;6505;51.114;13.128;2023-04-07T05:01:44;99627.00;;;9.50
12875;BMP180;6505;51.114;13.128;2023-04-07T05:04:15;99648.00;;;9.50
12875;BMP180;6505;51.114;13.128;2023-04-07T05:06:50;99638.00;;;9.50
12875;BMP180;6505;51.114;13.128;2023-04-07T05:09:22;99655.00;;;9.40
12875;BMP180;6505;51.114;13.128;2023-04-07T05:11:51;99652.00;;;9.50
12875;BMP180;6505;51.114;13.128;2023-04-07T05:14:20;99637.00;;;9.50
12875;BMP180;6505;51.114;13.128;2023-04-07T05:16:56;99646.00;;;9.50
12875;BMP180;6505;51.114;13.128;2023-04-07T05:19:27;99652.00;;;9.50
12875;BMP180;6505;51.114;13.128;2023-04-07T05:22:02;99650.00;;;9.50
12875;BMP180;6505;51.114;13.128;2023-04-07T05:24:36;99644.00;;;9.50
12875;BMP180;6505;51.114;13.128;2023-04-07T05:27:04;99650.00;;;9.50
12875;BMP180;6505;51.114;13.128;2023-04-07T05:29:33;99648.00;;;9.50
12875;BMP180;6505;51.114;13.128;2023-04-07T05:32:04;99646.00;;;9.50
12875;BMP180;6505;51.114;13.128;2023-04-07T05:34:32;99656.00;;;9.50
12875;BMP180;6505;51.114;13.128;2023-04-07T05:37:00;99633.00;;;9.60
12875;BMP180;6505;51.114;13.128;2023-04-07T05:39:28;99645.00;;;9.60
12875;BMP180;6505;51.114;13.128;2023-04-07T05:41:58;99641.00;;;9.60
12875;BMP180;6505;51.114;13.128;2023-04-07T05:44:27;99634.00;;;9.60
12875;BMP180;6505;51.114;13.128;2023-04-07T05:46:56;99652.00;;;9.70
12875;BMP180;6505;51.114;13.128;2023-04-07T05:49:25;99651.00;;;9.70
12875;BMP180;6505;51.114;13.128;2023-04-07T05:52:03;99648.00;;;9.80
12875;BMP180;6505;51.114;13.128;2023-04-07T05:54:37;99647.00;;;9.80
12875;BMP180;6505;51.114;13.128;2023-04-07T05:57:08;99648.00;;;9.80
12875;BMP180;6505;51.114;13.128;2023-04-07T05:59:41;99655.00;;;9.90
12875;BMP180;6505;51.114;13.128;2023-04-07T06:02:10;99659.00;;;9.90
12875;BMP180;6505;51.114;13.128;2023-04-07T06:04:38;99650.00;;;9.90
12875;BMP180;6505;51.114;13.128;2023-04-07T06:07:10;99653.00;;;10.00
12875;BMP180;6505;51.114;13.128;2023-04-07T06:09:41;99653.00;;;10.00
12875;BMP180;6505;51.114;13.128;2023-04-07T06:12:11;99658.00;;;10.10
12875;BMP180;6505;51.114;13.128;2023-04-07T06:14:39;99643.00;;;10.10
12875;BMP180;6505;51.114;13.128;2023-04-07T06:17:07;99649.00;;;10.20
12875;BMP180;6505;51.114;13.128;2023-04-07T06:19:35;99647.00;;;10.20
12875;BMP180;6505;51.114;13.128;2023-04-07T06:22:03;99652.00;;;10.30
12875;BMP180;6505;51.114;13.128;2023-04-07T06:24:31;99652.00;;;10.30
12875;BMP180;6505;51.114;13.128;2023-04-07T06:26:59;99660.00;;;10.40
12875;BMP180;6505;51.114;13.128;2023-04-07T06:29:31;99642.00;;;10.40
12875;BMP180;6505;51.114;13.128;2023-04-07T06:32:02;99641.00;;;10.50
12875;BMP180;6505;51.114;13.128;2023-04-07T06:34:30;99634.00;;;10.50
12875;BMP180;6505;51.114;13.128;2023-04-07T06:36:58;99642.00;;;10.60
12875;BMP180;6505;51.114;13.128;2023-04-07T06:39:28;99638.00;;;10.60
12875;BMP180;6505;51.114;13.128;2023-04-07T06:41:56;99628.00;;;10.70
12875;BMP180;6505;51.114;13.128;2023-04-07T06:44:24;99638.00;;;10.80
12875;BMP180;6505;51.114;13.128;2023-04-07T06:46:53;99638.00;;;10.80
12875;BMP180;6505;51.114;13.128;2023-04-07T06:49:22;99645.00;;;10.90
12875;BMP180;6505;51.114;13.128;2023-04-07T06:51:50;99642.00;;;10.90
12875;BMP180;6505;51.114;13.128;2023-04-07T06:54:18;99639.00;;;10.90
12875;BMP180;6505;51.114;13.128;2023-04-07T06:56:46;99643.00;;;11.00
12875;BMP180;6505;51.114;13.128;2023-04-07T06:59:14;99644.00;;;11.10
12875;BMP180;6505;51.114;13.128;2023-04-07T07:01:42;99644.00;;;11.10
12875;BMP180;6505;51.114;13.128;2023-04-07T07:04:12;99642.00;;;11.20
12875;BMP180;6505;51.114;13.128;2023-04-07T07:06:40;99647.00;;;11.20
12875;BMP180;6505;51.114;13.128;2023-04-07T07:09:08;99636.00;;;11.30
12875;BMP180;6505;51.114;13.128;2023-04-07T07:11:36;99647.00;;;11.30
12875;BMP180;6505;51.114;13.128;2023-04-07T07:14:05;99643.00;;;11.40
12875;BMP180;6505;51.114;13.128;2023-04-07T07:16:33;99646.00;;;11.40
12875;BMP180;6505;51.114;13.128;2023-04-07T07:19:03;99647.00;;;11.50
12875;BMP180;6505;51.114;13.128;2023-04-07T07:21:32;99638.00;;;11.50
12875;BMP180;6505;51.114;13.128;2023-04-07T07:24:00;99642.00;;;11.50
12875;BMP180;6505;51.114;13.128;2023-04-07T07:26:28;99646.00;;;11.60
12875;BMP180;6505;51.114;13.128;2023-04-07T07:28:56;99644.00;;;11.60
12875;BMP180;6505;51.114;13.128;2023-04-07T07:31:24;99650.00;;;11.60
12875;BMP180;6505;51.114;13.128;2023-04-07T07:33:52;99643.00;;;11.70
12875;BMP180;6505;51.114;13.128;2023-04-07T07:36:19;99641.00;;;11.80
12875;BMP180;6505;51.114;13.128;2023-04-07T07:38:50;99661.00;;;11.80
12875;BMP180;6505;51.114;13.128;2023-04-07T07:41:18;99657.00;;;11.90
12875;BMP180;6505;51.114;13.128;2023-04-07T07:43:46;99670.00;;;11.90
12875;BMP180;6505;51.114;13.128;2023-04-07T07:46:15;99658.00;;;12.00
12875;BMP180;6505;51.114;13.128;2023-04-07T07:48:43;99661.00;;;12.00
12875;BMP180;6505;51.114;13.128;2023-04-07T07:51:12;99664.00;;;12.10
12875;BMP180;6505;51.114;13.128;2023-04-07T07:53:40;99663.00;;;12.20
12875;BMP180;6505;51.114;13.128;2023-04-07T07:56:09;99662.00;;;12.30
12875;BMP180;6505;51.114;13.128;2023-04-07T07:58:37;99658.00;;;12.40
12875;BMP180;6505;51.114;13.128;2023-04-07T08:01:05;99666.00;;;12.50
12875;BMP180;6505;51.114;13.128;2023-04-07T08:03:34;99670.00;;;12.70
12875;BMP180;6505;51.114;13.128;2023-04-07T08:06:02;99673.00;;;12.90
12875;BMP180;6505;51.114;13.128;2023-04-07T08:08:30;99673.00;;;13.10
12875;BMP180;6505;51.114;13.128;2023-04-07T08:10:58;99676.00;;;13.30
12875;BMP180;6505;51.114;13.128;2023-04-07T08:13:27;99683.00;;;13.50
12875;BMP180;6505;51.114;13.128;2023-04-07T08:15:55;99681.00;;;13.80
12875;BMP180;6505;51.114;13.128;2023-04-07T08:18:23;99681.00;;;13.90
12875;BMP180;6505;51.114;13.128;2023-04-07T08:20:51;99672.00;;;14.20
12875;BMP180;6505;51.114;13.128;2023-04-07T08:23:19;99676.00;;;14.50
12875;BMP180;6505;51.114;13.128;2023-04-07T08:25:47;99677.00;;;14.70
12875;BMP180;6505;51.114;13.128;2023-04-07T08:28:15;99675.00;;;15.00
12875;BMP180;6505;51.114;13.128;2023-04-07T08:30:44;99687.00;;;15.20
12875;BMP180;6505;51.114;13.128;2023-04-07T08:33:12;99687.00;;;15.40
12875;BMP180;6505;51.114;13.128;2023-04-07T08:35:40;99677.00;;;15.70
12875;BMP180;6505;51.114;13.128;2023-04-07T08:38:08;99688.00;;;15.90
12875;BMP180;6505;51.114;13.128;2023-04-07T08:40:36;99692.00;;;16.10
12875;BMP180;6505;51.114;13.128;2023-04-07T08:43:08;99684.00;;;16.30
12875;BMP180;6505;51.114;13.128;2023-04-07T08:45:39;99687.00;;;16.50
12875;BMP180;6505;51.114;13.128;2023-04-07T08:48:16;99687.00;;;16.70
12875;BMP180;6505;51.114;13.128;2023-04-07T08:50:45;99685.00;;;16.90
12875;BMP180;6505;51.114;13.128;2023-04-07T08:53:17;99694.00;;;17.00
12875;BMP180;6505;51.114;13.128;2023-04-07T08:55:46;99685.00;;;17.10
12875;BMP180;6505;51.114;13.128;2023-04-07T08:58:15;99687.00;;;17.20
12875;BMP180;6505;51.114;13.128;2023-04-07T09:00:43;99683.00;;;17.30
12875;BMP180;6505;51.114;13.128;2023-04-07T09:03:17;99675.00;;;17.30
12875;BMP180;6505;51.114;13.128;2023-04-07T09:05:48;99687.00;;;17.20
12875;BMP180;6505;51.114;13.128;2023-04-07T09:08:17;99678.00;;;17.20
12875;BMP180;6505;51.114;13.128;2023-04-07T09:10:45;99680.00;;;17.20
12875;BMP180;6505;51.114;13.128;2023-04-07T09:13:12;99687.00;;;17.10
12875;BMP180;6505;51.114;13.128;2023-04-07T09:15:41;99677.00;;;17.00
12875;BMP180;6505;51.114;13.128;2023-04-07T09:18:08;99675.00;;;16.90
12875;BMP180;6505;51.114;13.128;2023-04-07T09:20:59;99677.00;;;16.80
12875;BMP180;6505;51.114;13.128;2023-04-07T09:23:30;99681.00;;;16.70
12875;BMP180;6505;51.114;13.128;2023-04-07T09:25:59;99682.00;;;16.70
12875;BMP180;6505;51.114;13.128;2023-04-07T09:28:44;99677.00;;;16.50
12875;BMP180;6505;51.114;13.128;2023-04-07T09:31:13;99687.00;;;16.50
12875;BMP180;6505;51.114;13.128;2023-04-07T09:33:41;99689.00;;;16.50
12875;BMP180;6505;51.114;13.128;2023-04-07T09:36:11;99682.00;;;16.40
12875;BMP180;6505;51.114;13.128;2023-04-07T09:38:40;99688.00;;;16.40
12875;BMP180;6505;51.114;13.128;2023-04-07T09:41:10;99668.00;;;16.30
12875;BMP180;6505;51.114;13.128;2023-04-07T09:43:41;99674.00;;;16.30
12875;BMP180;6505;51.114;13.128;2023-04-07T09:46:13;99668.00;;;16.20
12875;BMP180;6505;51.114;13.128;2023-04-07T09:48:43;99674.00;;;16.20
12875;BMP180;6505;51.114;13.128;2023-04-07T09:51:15;99666.00;;;16.10
12875;BMP180;6505;51.114;13.128;2023-04-07T09:53:47;99662.00;;;16.00
12875;BMP180;6505;51.114;13.128;2023-04-07T09:56:18;99667.00;;;16.00
12875;BMP180;6505;51.114;13.128;2023-04-07T09:58:49;99661.00;;;16.00
12875;BMP180;6505;51.114;13.128;2023-04-07T10:01:20;99664.00;;;16.00
12875;BMP180;6505;51.114;13.128;2023-04-07T10:03:49;99662.00;;;15.90
12875;BMP180;6505;51.114;13.128;2023-04-07T10:06:20;99667.00;;;15.90
12875;BMP180;6505;51.114;13.128;2023-04-07T10:08:49;99666.00;;;15.90
12875;BMP180;6505;51.114;13.128;2023-04-07T10:11:17;99666.00;;;15.90
12875;BMP180;6505;51.114;13.128;2023-04-07T10:13:45;99661.00;;;15.80
12875;BMP180;6505;51.114;13.128;2023-04-07T10:16:14;99666.00;;;15.80
12875;BMP180;6505;51.114;13.128;2023-04-07T10:18:42;99666.00;;;15.80
12875;BMP180;6505;51.114;13.128;2023-04-07T10:21:11;99666.00;;;15.80
12875;BMP180;6505;51.114;13.128;2023-04-07T10:23:55;99661.00;;;15.70
12875;BMP180;6505;51.114;13.128;2023-04-07T10:26:29;99657.00;;;15.70
12875;BMP180;6505;51.114;13.128;2023-04-07T10:29:05;99675.00;;;15.70
12875;BMP180;6505;51.114;13.128;2023-04-07T10:31:36;99669.00;;;15.70
12875;BMP180;6505;51.114;13.128;2023-04-07T10:34:05;99673.00;;;15.70
12875;BMP180;6505;51.114;13.128;2023-04-07T10:36:33;99678.00;;;15.70
12875;BMP180;6505;51.114;13.128;2023-04-07T10:39:21;99668.00;;;15.60
12875;BMP180;6505;51.114;13.128;2023-04-07T10:41:49;99670.00;;;15.70
12875;BMP180;6505;51.114;13.128;2023-04-07T10:44:54;99678.00;;;15.60
12875;BMP180;6505;51.114;13.128;2023-04-07T10:47:24;99682.00;;;15.70
12875;BMP180;6505;51.114;13.128;2023-04-07T10:50:18;99670.00;;;15.60
12875;BMP180;6505;51.114;13.128;2023-04-07T10:52:48;99676.00;;;15.60
12875;BMP180;6505;51.114;13.128;2023-04-07T10:55:34;99681.00;;;15.60
12875;BMP180;6505;51.114;13.128;2023-04-07T10:58:14;99684.00;;;15.60
12875;BMP180;6505;51.114;13.128;2023-04-07T11:01:15;99687.00;;;15.50
12875;BMP180;6505;51.114;13.128;2023-04-07T11:03:57;99671.00;;;15.50
12875;BMP180;6505;51.114;13.128;2023-04-07T11:06:26;99689.00;;;15.60
12875;BMP180;6505;51.114;13.128;2023-04-07T11:08:54;99686.00;;;15.60
12875;BMP180;6505;51.114;13.128;2023-04-07T11:11:39;99676.00;;;15.50
12875;BMP180;6505;51.114;13.128;2023-04-07T11:14:08;99684.00;;;15.60
12875;BMP180;6505;51.114;13.128;2023-04-07T11:16:39;99677.00;;;15.60
12875;BMP180;6505;51.114;13.128;2023-04-07T11:19:08;99670.00;;;15.50
12875;BMP180;6505;51.114;13.128;2023-04-07T11:21:36;99665.00;;;15.60
12875;BMP180;6505;51.114;13.128;2023-04-07T11:24:05;99674.00;;;15.60
12875;BMP180;6505;51.114;13.128;2023-04-07T11:26:41;99676.00;;;15.50
12875;BMP180;6505;51.114;13.128;2023-04-07T11:29:09;99667.00;;;15.50
12875;BMP180;6505;51.114;13.128;2023-04-07T11:31:39;99676.00;;;15.60
12875;BMP180;6505;51.114;13.128;2023-04-07T11:34:07;99667.00;;;15.60
12875;BMP180;6505;51.114;13.128;2023-04-07T11:36:39;99686.00;;;15.50
12875;BMP180;6505;51.114;13.128;2023-04-07T11:39:18;99677.00;;;15.50
12875;BMP180;6505;51.114;13.128;2023-04-07T11:41:49;99676.00;;;15.60
12875;BMP180;6505;51.114;13.128;2023-04-07T11:44:17;99677.00;;;15.60
12875;BMP180;6505;51.114;13.128;2023-04-07T11:46:53;99672.00;;;15.50
12875;BMP180;6505;51.114;13.128;2023-04-07T11:49:23;99676.00;;;15.60
12875;BMP180;6505;51.114;13.128;2023-04-07T11:51:58;99678.00;;;15.50
12875;BMP180;6505;51.114;13.128;2023-04-07T11:54:27;99682.00;;;15.60
12875;BMP180;6505;51.114;13.128;2023-04-07T11:56:56;99673.00;;;15.50
12875;BMP180;6505;51.114;13.128;2023-04-07T11:59:25;99669.00;;;15.60
12875;BMP180;6505;51.114;13.128;2023-04-07T12:01:54;99674.00;;;15.60
12875;BMP180;6505;51.114;13.128;2023-04-07T12:04:24;99670.00;;;15.60
12875;BMP180;6505;51.114;13.128;2023-04-07T12:06:52;99667.00;;;15.60
12875;BMP180;6505;51.114;13.128;2023-04-07T12:09:29;99669.00;;;15.50
12875;BMP180;6505;51.114;13.128;2023-04-07T12:11:59;99673.00;;;15.60
12875;BMP180;6505;51.114;13.128;2023-04-07T12:14:27;99663.00;;;15.60
12875;BMP180;6505;51.114;13.128;2023-04-07T12:16:55;99673.00;;;15.60
12875;BMP180;6505;51.114;13.128;2023-04-07T12:19:26;99660.00;;;15.60
12875;BMP180;6505;51.114;13.128;2023-04-07T12:21:54;99659.00;;;15.60
12875;BMP180;6505;51.114;13.128;2023-04-07T12:24:23;99664.00;;;15.60
12875;BMP180;6505;51.114;13.128;2023-04-07T12:26:51;99673.00;;;15.60
12875;BMP180;6505;51.114;13.128;2023-04-07T12:29:20;99672.00;;;15.60
12875;BMP180;6505;51.114;13.128;2023-04-07T12:31:48;99662.00;;;15.60
12875;BMP180;6505;51.114;13.128;2023-04-07T12:34:17;99663.00;;;15.60
12875;BMP180;6505;51.114;13.128;2023-04-07T12:36:45;99673.00;;;15.60
12875;BMP180;6505;51.114;13.128;2023-04-07T12:39:15;99671.00;;;15.60
12875;BMP180;6505;51.114;13.128;2023-04-07T12:41:43;99674.00;;;15.70
12875;BMP180;6505;51.114;13.128;2023-04-07T12:44:15;99669.00;;;15.60
12875;BMP180;6505;51.114;13.128;2023-04-07T12:46:44;99675.00;;;15.60
12875;BMP180;6505;51.114;13.128;2023-04-07T12:49:12;99673.00;;;15.70
12875;BMP180;6505;51.114;13.128;2023-04-07T12:51:40;99679.00;;;15.70
12875;BMP180;6505;51.114;13.128;2023-04-07T12:54:08;99664.00;;;15.70
12875;BMP180;6505;51.114;13.128;2023-04-07T12:56:36;99673.00;;;15.70
12875;BMP180;6505;51.114;13.128;2023-04-07T12:59:05;99666.00;;;15.70
12875;BMP180;6505;51.114;13.128;2023-04-07T13:01:34;99670.00;;;15.70
12875;BMP180;6505;51.114;13.128;2023-04-07T13:04:04;99662.00;;;15.70
12875;BMP180;6505;51.114;13.128;2023-04-07T13:06:32;99668.00;;;15.70
12875;BMP180;6505;51.114;13.128;2023-04-07T13:09:00;99666.00;;;15.70
12875;BMP180;6505;51.114;13.128;2023-04-07T13:11:28;99663.00;;;15.60
12875;BMP180;6505;51.114;13.128;2023-04-07T13:13:56;99670.00;;;15.60
12875;BMP180;6505;51.114;13.128;2023-04-07T13:16:27;99669.00;;;15.60
12875;BMP180;6505;51.114;13.128;2023-04-07T13:18:55;99663.00;;;15.60
12875;BMP180;6505;51.114;13.128;2023-04-07T13:21:25;99656.00;;;15.60
12875;BMP180;6505;51.114;13.128;2023-04-07T13:24:12;99660.00;;;15.60
12875;BMP180;6505;51.114;13.128;2023-04-07T13:26:40;99661.00;;;15.60
12875;BMP180;6505;51.114;13.128;2023-04-07T13:29:08;99659.00;;;15.60
12875;BMP180;6505;51.114;13.128;2023-04-07T13:31:36;99650.00;;;15.50
12875;BMP180;6505;51.114;13.128;2023-04-07T13:34:04;99656.00;;;15.50
12875;BMP180;6505;51.114;13.128;2023-04-07T13:36:33;99664.00;;;15.50
12875;BMP180;6505;51.114;13.128;2023-04-07T13:39:02;99656.00;;;15.50
12875;BMP180;6505;51.114;13.128;2023-04-07T13:41:36;99651.00;;;15.50
12875;BMP180;6505;51.114;13.128;2023-04-07T13:44:04;99647.00;;;15.50
12875;BMP180;6505;51.114;13.128;2023-04-07T13:46:32;99651.00;;;15.50
12875;BMP180;6505;51.114;13.128;2023-04-07T13:49:00;99646.00;;;15.50
12875;BMP180;6505;51.114;13.128;2023-04-07T13:51:28;99656.00;;;15.50
12875;BMP180;6505;51.114;13.128;2023-04-07T13:53:57;99646.00;;;15.50
12875;BMP180;6505;51.114;13.128;2023-04-07T13:56:26;99643.00;;;15.50
12875;BMP180;6505;51.114;13.128;2023-04-07T13:58:54;99643.00;;;15.50
12875;BMP180;6505;51.114;13.128;2023-04-07T14:01:22;99641.00;;;15.50
12875;BMP180;6505;51.114;13.128;2023-04-07T14:03:50;99632.00;;;15.50
12875;BMP180;6505;51.114;13.128;2023-04-07T14:06:19;99628.00;;;15.50
12875;BMP180;6505;51.114;13.128;2023-04-07T14:08:49;99628.00;;;15.50
12875;BMP180;6505;51.114;13.128;2023-04-07T14:11:18;99620.00;;;15.50
12875;BMP180;6505;51.114;13.128;2023-04-07T14:13:48;99627.00;;;15.50
12875;BMP180;6505;51.114;13.128;2023-04-07T14:16:17;99606.00;;;15.50
12875;BMP180;6505;51.114;13.128;2023-04-07T14:18:45;99618.00;;;15.50
12875;BMP180;6505;51.114;13.128;2023-04-07T14:21:15;99623.00;;;15.50
12875;BMP180;6505;51.114;13.128;2023-04-07T14:23:43;99615.00;;;15.50
12875;BMP180;6505;51.114;13.128;2023-04-07T14:26:11;99617.00;;;15.50
12875;BMP180;6505;51.114;13.128;2023-04-07T14:28:40;99619.00;;;15.50
12875;BMP180;6505;51.114;13.128;2023-04-07T14:31:11;99621.00;;;15.50